createdAt,value
2019-02-22T00:00:11.928Z,953.94
2019-02-22T00:01:11.830Z,953.96
2019-02-22T00:02:11.727Z,953.97
2019-02-22T00:03:11.631Z,954.02
2019-02-22T00:04:11.543Z,953.97
2019-02-22T00:05:11.542Z,954.00
2019-02-22T00:06:11.329Z,953.96
2019-02-22T00:07:11.233Z,953.93
2019-02-22T00:08:11.133Z,953.91
2019-02-22T00:09:11.050Z,953.92
2019-02-22T00:10:10.948Z,953.93
2019-02-22T00:11:10.834Z,953.96
2019-02-22T00:12:10.842Z,953.94
2019-02-22T00:13:10.634Z,953.95
2019-02-22T00:14:10.554Z,953.94
2019-02-22T00:15:10.437Z,953.91
2019-02-22T00:16:10.340Z,953.94
2019-02-22T00:17:10.239Z,953.94
2019-02-22T00:18:10.142Z,953.94
2019-02-22T00:19:10.159Z,953.98
2019-02-22T00:20:09.941Z,953.98
2019-02-22T00:21:09.843Z,953.96
2019-02-22T00:22:09.744Z,953.96
2019-02-22T00:23:09.643Z,954.00
2019-02-22T00:24:09.561Z,954.03
2019-02-22T00:25:09.555Z,954.08
2019-02-22T00:26:11.125Z,954.07
2019-02-22T00:27:09.247Z,954.05
2019-02-22T00:28:09.149Z,954.07
2019-02-22T00:29:09.064Z,954.09
2019-02-22T00:30:08.948Z,954.11
2019-02-22T00:31:08.851Z,954.07
2019-02-22T00:32:08.752Z,954.07
2019-02-22T00:33:08.751Z,954.06
2019-02-22T00:34:08.569Z,954.09
2019-02-22T00:35:08.484Z,954.08
2019-02-22T00:36:08.431Z,954.08
2019-02-22T00:37:08.311Z,954.07
2019-02-22T00:38:08.156Z,954.08
2019-02-22T00:39:08.070Z,954.10
2019-02-22T00:40:07.963Z,954.05
2019-02-22T00:41:07.855Z,954.09
2019-02-22T00:42:07.755Z,954.07
2019-02-22T00:43:07.661Z,954.09
2019-02-22T00:44:07.578Z,954.08
2019-02-22T00:45:07.460Z,954.06
2019-02-22T00:46:07.379Z,954.05
2019-02-22T00:47:07.263Z,954.05
2019-02-22T00:48:07.161Z,954.05
2019-02-22T00:49:07.061Z,954.05
2019-02-22T00:50:06.978Z,954.00
2019-02-22T00:51:06.866Z,954.01
2019-02-22T00:52:06.767Z,954.07
2019-02-22T00:53:06.665Z,954.04
2019-02-22T00:54:06.577Z,954.05
2019-02-22T00:55:06.464Z,954.01
2019-02-22T00:56:06.367Z,954.01
2019-02-22T00:57:06.265Z,954.00
2019-02-22T00:58:06.167Z,954.00
2019-02-22T00:59:06.071Z,953.98
2019-02-22T01:00:05.988Z,953.99
2019-02-22T01:01:05.868Z,954.00
2019-02-22T01:02:05.770Z,954.00
2019-02-22T01:03:05.674Z,953.93
2019-02-22T01:04:05.575Z,953.99
2019-02-22T01:05:05.496Z,953.99
2019-02-22T01:06:05.372Z,953.95
2019-02-22T01:07:05.272Z,954.00
2019-02-22T01:08:05.174Z,954.00
2019-02-22T01:09:05.074Z,953.97
2019-02-22T01:10:04.992Z,954.07
2019-02-22T01:11:04.875Z,954.04
2019-02-22T01:12:04.777Z,954.03
2019-02-22T01:13:04.673Z,954.03
2019-02-22T01:14:04.579Z,954.03
2019-02-22T01:15:04.493Z,954.04
2019-02-22T01:16:04.379Z,954.10
2019-02-22T01:17:04.275Z,954.02
2019-02-22T01:18:04.192Z,954.07
2019-02-22T01:19:04.086Z,954.13
2019-02-22T01:20:04.009Z,954.07
2019-02-22T01:21:03.878Z,954.09
2019-02-22T01:22:03.786Z,954.10
2019-02-22T01:23:03.681Z,954.07
2019-02-22T01:24:03.582Z,954.10
2019-02-22T01:25:03.498Z,954.11
2019-02-22T01:26:03.386Z,954.10
2019-02-22T01:27:03.281Z,954.17
2019-02-22T01:28:03.194Z,954.13
2019-02-22T01:29:03.091Z,954.16
2019-02-22T01:30:03.003Z,954.02
2019-02-22T01:31:02.892Z,954.12
2019-02-22T01:32:02.787Z,954.18
2019-02-22T01:33:02.687Z,954.10
2019-02-22T01:34:02.592Z,954.13
2019-02-22T01:35:02.506Z,954.11
2019-02-22T01:36:02.406Z,954.12
2019-02-22T01:37:02.294Z,954.18
2019-02-22T01:38:02.195Z,954.13
2019-02-22T01:39:02.094Z,954.09
2019-02-22T01:40:02.062Z,954.16
2019-02-22T01:41:01.893Z,954.13
2019-02-22T01:42:01.799Z,954.19
2019-02-22T01:43:01.695Z,954.16
2019-02-22T01:44:01.597Z,954.24
2019-02-22T01:45:01.522Z,954.13
2019-02-22T01:46:01.398Z,954.14
2019-02-22T01:47:01.298Z,954.16
2019-02-22T01:48:01.197Z,954.14
2019-02-22T01:49:01.099Z,954.16
2019-02-22T01:50:01.013Z,954.20
2019-02-22T01:51:00.899Z,954.14
2019-02-22T01:52:00.798Z,954.13
2019-02-22T01:53:00.705Z,954.10
2019-02-22T01:54:00.602Z,954.15
2019-02-22T01:55:00.519Z,954.12
2019-02-22T01:56:00.502Z,954.20
2019-02-22T01:57:00.304Z,954.14
2019-02-22T01:58:00.202Z,954.18
2019-02-22T01:59:00.104Z,954.15
2019-02-22T02:00:00.019Z,954.18
2019-02-22T02:00:59.906Z,954.11
2019-02-22T02:01:59.806Z,954.19
2019-02-22T02:02:59.826Z,954.17
2019-02-22T02:03:59.606Z,954.17
2019-02-22T02:04:59.522Z,954.16
2019-02-22T02:05:59.408Z,954.09
2019-02-22T02:06:59.307Z,954.09
2019-02-22T02:07:59.213Z,954.14
2019-02-22T02:08:59.110Z,954.14
2019-02-22T02:09:59.133Z,954.22
2019-02-22T02:10:58.911Z,954.19
2019-02-22T02:11:58.813Z,954.13
2019-02-22T02:12:58.716Z,954.17
2019-02-22T02:13:58.615Z,954.20
2019-02-22T02:14:58.528Z,954.21
2019-02-22T02:15:58.412Z,954.19
2019-02-22T02:16:58.423Z,954.15
2019-02-22T02:17:58.217Z,954.16
2019-02-22T02:18:58.116Z,954.20
2019-02-22T02:19:58.034Z,954.18
2019-02-22T02:20:57.915Z,954.18
2019-02-22T02:21:57.816Z,954.19
2019-02-22T02:22:57.722Z,954.18
2019-02-22T02:23:57.725Z,954.18
2019-02-22T02:24:57.535Z,954.16
2019-02-22T02:25:57.420Z,954.21
2019-02-22T02:26:57.320Z,954.23
2019-02-22T02:27:57.222Z,954.20
2019-02-22T02:28:57.122Z,954.24
2019-02-22T02:29:57.040Z,954.24
2019-02-22T02:30:57.037Z,954.25
2019-02-22T02:31:56.825Z,954.24
2019-02-22T02:32:56.726Z,954.22
2019-02-22T02:33:56.633Z,954.18
2019-02-22T02:34:56.544Z,954.27
2019-02-22T02:35:56.427Z,954.28
2019-02-22T02:36:56.337Z,954.22
2019-02-22T02:37:56.328Z,954.26
2019-02-22T02:38:56.137Z,954.28
2019-02-22T02:39:56.047Z,954.23
2019-02-22T02:41:08.075Z,954.24
2019-02-22T02:41:55.829Z,954.22
2019-02-22T02:42:55.730Z,954.24
2019-02-22T02:43:55.629Z,954.26
2019-02-22T02:44:55.634Z,954.24
2019-02-22T02:45:55.449Z,954.24
2019-02-22T02:46:55.332Z,954.20
2019-02-22T02:47:55.233Z,954.25
2019-02-22T02:48:55.138Z,954.25
2019-02-22T02:49:55.061Z,954.29
2019-02-22T02:50:54.953Z,954.26
2019-02-22T02:51:54.937Z,954.29
2019-02-22T02:52:54.738Z,954.28
2019-02-22T02:53:54.637Z,954.35
2019-02-22T02:54:54.541Z,954.32
2019-02-22T02:55:54.459Z,954.32
2019-02-22T02:56:54.342Z,954.30
2019-02-22T02:57:54.240Z,954.34
2019-02-22T02:58:54.243Z,954.36
2019-02-22T02:59:54.045Z,954.38
2019-02-22T03:00:53.958Z,954.27
2019-02-22T03:01:53.844Z,954.35
2019-02-22T03:02:53.745Z,954.36
2019-02-22T03:03:53.645Z,954.34
2019-02-22T03:04:53.669Z,954.34
2019-02-22T03:05:53.462Z,954.33
2019-02-22T03:06:53.345Z,954.28
2019-02-22T03:07:53.248Z,954.25
2019-02-22T03:08:53.149Z,954.34
2019-02-22T03:09:53.051Z,954.32
2019-02-22T03:10:52.966Z,954.35
2019-02-22T03:11:52.860Z,954.29
2019-02-22T03:12:52.752Z,954.35
2019-02-22T03:13:52.652Z,954.37
2019-02-22T03:14:52.552Z,954.40
2019-02-22T03:15:52.473Z,954.36
2019-02-22T03:16:52.353Z,954.37
2019-02-22T03:17:52.255Z,954.38
2019-02-22T03:18:52.158Z,954.41
2019-02-22T03:19:52.055Z,954.44
2019-02-22T03:20:51.975Z,954.43
2019-02-22T03:21:51.867Z,954.37
2019-02-22T03:22:51.762Z,954.45
2019-02-22T03:23:51.714Z,954.48
2019-02-22T03:24:53.699Z,954.50
2019-02-22T03:25:51.481Z,954.52
2019-02-22T03:26:51.361Z,954.50
2019-02-22T03:27:51.260Z,954.50
2019-02-22T03:28:51.162Z,954.48
2019-02-22T03:29:51.066Z,954.51
2019-02-22T03:30:50.989Z,954.45
2019-02-22T03:31:50.866Z,954.45
2019-02-22T03:32:50.765Z,954.46
2019-02-22T03:33:50.668Z,954.48
2019-02-22T03:34:50.568Z,954.50
2019-02-22T03:35:50.486Z,954.50
2019-02-22T03:36:50.367Z,954.51
2019-02-22T03:37:50.267Z,954.52
2019-02-22T03:38:50.175Z,954.47
2019-02-22T03:39:50.076Z,954.51
2019-02-22T03:40:49.989Z,954.57
2019-02-22T03:41:49.872Z,954.54
2019-02-22T03:42:49.776Z,954.58
2019-02-22T03:43:49.675Z,954.55
2019-02-22T03:44:49.574Z,954.63
2019-02-22T03:45:49.492Z,954.67
2019-02-22T03:46:49.374Z,954.66
2019-02-22T03:47:49.276Z,954.74
2019-02-22T03:48:49.175Z,954.69
2019-02-22T03:49:49.077Z,954.69
2019-02-22T03:50:48.998Z,954.72
2019-02-22T03:51:48.880Z,954.70
2019-02-22T03:52:48.782Z,954.73
2019-02-22T03:53:48.685Z,954.73
2019-02-22T03:54:48.580Z,954.71
2019-02-22T03:55:48.499Z,954.69
2019-02-22T03:56:48.383Z,954.75
2019-02-22T03:57:48.285Z,954.73
2019-02-22T03:58:48.184Z,954.74
2019-02-22T03:59:50.931Z,954.74
2019-02-22T04:00:48.005Z,954.73
2019-02-22T04:01:47.888Z,954.78
2019-02-22T04:02:47.788Z,954.83
2019-02-22T04:03:47.690Z,954.80
2019-02-22T04:04:47.588Z,954.88
2019-02-22T04:05:47.521Z,954.80
2019-02-22T04:06:47.388Z,954.85
2019-02-22T04:07:47.293Z,954.91
2019-02-22T04:08:47.192Z,954.85
2019-02-22T04:09:47.095Z,954.89
2019-02-22T04:10:47.016Z,954.77
2019-02-22T04:11:46.895Z,954.81
2019-02-22T04:12:46.797Z,954.91
2019-02-22T04:13:46.701Z,954.88
2019-02-22T04:14:46.600Z,954.93
2019-02-22T04:15:46.513Z,954.92
2019-02-22T04:16:46.400Z,954.91
2019-02-22T04:17:46.310Z,954.97
2019-02-22T04:18:46.199Z,954.94
2019-02-22T04:19:46.104Z,954.93
2019-02-22T04:20:46.019Z,954.88
2019-02-22T04:21:45.902Z,954.94
2019-02-22T04:22:45.803Z,955.01
2019-02-22T04:23:45.702Z,954.97
2019-02-22T04:24:45.605Z,954.97
2019-02-22T04:25:45.504Z,954.98
2019-02-22T04:26:45.418Z,954.99
2019-02-22T04:27:45.321Z,955.04
2019-02-22T04:28:45.207Z,954.99
2019-02-22T04:29:45.105Z,955.06
2019-02-22T04:30:45.022Z,955.07
2019-02-22T04:31:44.924Z,955.12
2019-02-22T04:32:44.810Z,955.06
2019-02-22T04:33:44.708Z,955.10
2019-02-22T04:34:44.610Z,955.11
2019-02-22T04:35:44.517Z,955.11
2019-02-22T04:36:44.425Z,955.07
2019-02-22T04:37:44.315Z,955.17
2019-02-22T04:38:44.217Z,955.15
2019-02-22T04:39:44.115Z,955.17
2019-02-22T04:40:44.015Z,955.19
2019-02-22T04:41:43.930Z,955.16
2019-02-22T04:42:43.917Z,955.06
2019-02-22T04:43:43.717Z,955.15
2019-02-22T04:44:43.617Z,955.14
2019-02-22T04:45:43.523Z,955.19
2019-02-22T04:46:43.437Z,955.12
2019-02-22T04:47:43.322Z,955.14
2019-02-22T04:48:43.219Z,955.18
2019-02-22T04:49:43.132Z,955.17
2019-02-22T04:50:43.023Z,955.25
2019-02-22T04:51:42.939Z,955.19
2019-02-22T04:52:42.822Z,955.19
2019-02-22T04:53:42.723Z,955.21
2019-02-22T04:54:42.630Z,955.21
2019-02-22T04:55:42.524Z,955.27
2019-02-22T04:56:42.555Z,955.16
2019-02-22T04:57:42.327Z,955.20
2019-02-22T04:58:42.230Z,955.27
2019-02-22T04:59:42.129Z,955.28
2019-02-22T05:00:42.029Z,955.25
2019-02-22T05:01:41.945Z,955.28
2019-02-22T05:02:41.842Z,955.31
2019-02-22T05:03:41.853Z,955.25
2019-02-22T05:04:41.632Z,955.30
2019-02-22T05:05:41.531Z,955.35
2019-02-22T05:06:41.452Z,955.31
2019-02-22T05:07:41.336Z,955.33
2019-02-22T05:08:41.237Z,955.33
2019-02-22T05:09:41.136Z,955.36
2019-02-22T05:10:41.134Z,955.36
2019-02-22T05:11:40.952Z,955.33
2019-02-22T05:12:40.834Z,955.37
2019-02-22T05:13:40.737Z,955.35
2019-02-22T05:14:40.648Z,955.37
2019-02-22T05:15:40.538Z,955.37
2019-02-22T05:16:40.454Z,955.35
2019-02-22T05:17:40.438Z,955.38
2019-02-22T05:18:40.240Z,955.38
2019-02-22T05:19:40.145Z,955.38
2019-02-22T05:20:40.043Z,955.44
2019-02-22T05:21:39.990Z,955.37
2019-02-22T05:22:39.851Z,955.43
2019-02-22T05:23:39.745Z,955.46
2019-02-22T05:24:39.649Z,955.37
2019-02-22T05:25:39.548Z,955.47
2019-02-22T05:26:39.464Z,955.53
2019-02-22T05:27:39.343Z,955.53
2019-02-22T05:28:39.244Z,955.55
2019-02-22T05:29:39.145Z,955.53
2019-02-22T05:30:39.051Z,955.56
2019-02-22T05:31:38.966Z,955.55
2019-02-22T05:32:38.849Z,955.49
2019-02-22T05:33:38.752Z,955.59
2019-02-22T05:34:38.652Z,955.55
2019-02-22T05:35:38.552Z,955.59
2019-02-22T05:36:38.471Z,955.51
2019-02-22T05:37:38.355Z,955.56
2019-02-22T05:38:38.249Z,955.60
2019-02-22T05:39:38.153Z,955.59
2019-02-22T05:40:38.073Z,955.65
2019-02-22T05:41:37.977Z,955.69
2019-02-22T05:42:37.859Z,955.67
2019-02-22T05:43:37.756Z,955.67
2019-02-22T05:44:37.653Z,955.63
2019-02-22T05:45:37.556Z,955.67
2019-02-22T05:46:37.477Z,955.74
2019-02-22T05:47:37.355Z,955.70
2019-02-22T05:48:38.877Z,955.73
2019-02-22T05:49:37.159Z,955.75
2019-02-22T05:50:37.064Z,955.79
2019-02-22T05:51:36.979Z,955.77
2019-02-22T05:52:36.862Z,955.83
2019-02-22T05:53:37.076Z,955.82
2019-02-22T05:54:36.660Z,955.91
2019-02-22T05:55:36.562Z,955.92
2019-02-22T05:56:36.479Z,955.91
2019-02-22T05:57:36.366Z,955.91
2019-02-22T05:58:36.269Z,955.87
2019-02-22T05:59:36.166Z,955.93
2019-02-22T06:00:36.175Z,955.98
2019-02-22T06:01:35.988Z,955.98
2019-02-22T06:02:35.866Z,955.98
2019-02-22T06:03:35.767Z,956.03
2019-02-22T06:04:35.667Z,956.03
2019-02-22T06:05:35.572Z,956.02
2019-02-22T06:06:35.490Z,956.04
2019-02-22T06:07:35.370Z,956.09
2019-02-22T06:08:35.269Z,956.07
2019-02-22T06:09:35.173Z,956.10
2019-02-22T06:10:35.070Z,956.15
2019-02-22T06:11:35.108Z,956.14
2019-02-22T06:12:35.171Z,956.14
2019-02-22T06:13:34.775Z,956.13
2019-02-22T06:14:34.673Z,956.20
2019-02-22T06:15:34.578Z,956.21
2019-02-22T06:16:34.480Z,956.26
2019-02-22T06:17:34.401Z,956.27
2019-02-22T06:18:34.277Z,956.27
2019-02-22T06:19:34.178Z,956.26
2019-02-22T06:20:34.076Z,956.27
2019-02-22T06:21:33.978Z,956.29
2019-02-22T06:22:33.899Z,956.31
2019-02-22T06:23:33.780Z,956.34
2019-02-22T06:24:33.693Z,956.40
2019-02-22T06:25:33.582Z,956.41
2019-02-22T06:26:33.481Z,956.37
2019-02-22T06:27:33.401Z,956.42
2019-02-22T06:28:33.285Z,956.40
2019-02-22T06:29:33.183Z,956.44
2019-02-22T06:30:33.087Z,956.47
2019-02-22T06:31:32.987Z,956.46
2019-02-22T06:32:32.900Z,956.46
2019-02-22T06:33:32.788Z,956.46
2019-02-22T06:34:32.691Z,956.52
2019-02-22T06:35:32.587Z,956.55
2019-02-22T06:36:32.494Z,956.57
2019-02-22T06:37:32.408Z,956.57
2019-02-22T06:38:32.290Z,956.57
2019-02-22T06:39:32.195Z,956.60
2019-02-22T06:40:32.092Z,956.63
2019-02-22T06:41:31.992Z,956.62
2019-02-22T06:42:31.911Z,956.63
2019-02-22T06:43:31.794Z,956.68
2019-02-22T06:44:31.696Z,956.68
2019-02-22T06:45:31.595Z,956.69
2019-02-22T06:46:31.497Z,956.72
2019-02-22T06:47:31.415Z,956.73
2019-02-22T06:48:31.299Z,956.73
2019-02-22T06:49:31.195Z,956.71
2019-02-22T06:50:34.026Z,956.71
2019-02-22T06:51:31.001Z,956.78
2019-02-22T06:52:30.918Z,956.78
2019-02-22T06:53:30.797Z,956.85
2019-02-22T06:54:30.698Z,956.83
2019-02-22T06:55:30.616Z,956.83
2019-02-22T06:56:30.499Z,956.90
2019-02-22T06:57:30.421Z,956.91
2019-02-22T06:58:30.306Z,956.94
2019-02-22T06:59:30.203Z,956.98
2019-02-22T07:00:30.110Z,956.99
2019-02-22T07:01:30.005Z,957.03
2019-02-22T07:02:29.922Z,957.06
2019-02-22T07:03:29.813Z,957.11
2019-02-22T07:04:29.707Z,957.10
2019-02-22T07:05:29.606Z,957.12
2019-02-22T07:06:29.509Z,957.15
2019-02-22T07:07:29.436Z,957.17
2019-02-22T07:08:29.315Z,957.19
2019-02-22T07:09:29.210Z,957.24
2019-02-22T07:10:29.111Z,957.28
2019-02-22T07:11:29.010Z,957.33
2019-02-22T07:12:28.955Z,957.37
2019-02-22T07:13:28.811Z,957.33
2019-02-22T07:14:28.710Z,957.31
2019-02-22T07:15:28.615Z,957.42
2019-02-22T07:16:28.520Z,957.39
2019-02-22T07:17:28.435Z,957.41
2019-02-22T07:18:28.320Z,957.41
2019-02-22T07:19:28.216Z,957.50
2019-02-22T07:20:28.119Z,957.52
2019-02-22T07:21:38.863Z,957.53
2019-02-22T07:22:27.940Z,957.56
2019-02-22T07:23:27.821Z,957.63
2019-02-22T07:24:27.722Z,957.56
2019-02-22T07:25:27.623Z,957.51
2019-02-22T07:26:27.522Z,957.61
2019-02-22T07:27:27.430Z,957.64
2019-02-22T07:28:27.340Z,957.67
2019-02-22T07:29:27.224Z,957.61
2019-02-22T07:30:27.126Z,957.67
2019-02-22T07:31:27.024Z,957.67
2019-02-22T07:32:26.946Z,957.69
2019-02-22T07:33:26.827Z,957.76
2019-02-22T07:34:26.743Z,957.75
2019-02-22T07:35:26.637Z,957.73
2019-02-22T07:36:26.530Z,957.80
2019-02-22T07:37:26.436Z,957.84
2019-02-22T07:38:26.355Z,957.82
2019-02-22T07:39:28.182Z,957.84
2019-02-22T07:40:26.132Z,957.82
2019-02-22T07:41:26.031Z,957.82
2019-02-22T07:42:25.987Z,957.83
2019-02-22T07:43:25.853Z,957.89
2019-02-22T07:44:25.847Z,957.89
2019-02-22T07:45:25.636Z,957.90
2019-02-22T07:46:25.541Z,957.93
2019-02-22T07:47:25.443Z,957.97
2019-02-22T07:48:25.357Z,957.97
2019-02-22T07:49:25.241Z,957.96
2019-02-22T07:50:25.141Z,958.01
2019-02-22T07:51:25.144Z,957.98
2019-02-22T07:52:24.992Z,958.00
2019-02-22T07:53:24.863Z,958.02
2019-02-22T07:54:24.747Z,958.01
2019-02-22T07:55:24.650Z,957.98
2019-02-22T07:56:24.544Z,958.02
2019-02-22T07:57:24.446Z,958.06
2019-02-22T07:58:24.471Z,958.10
2019-02-22T07:59:24.252Z,958.15
2019-02-22T08:00:24.165Z,958.13
2019-02-22T08:01:26.894Z,958.15
2019-02-22T08:02:23.954Z,958.13
2019-02-22T08:03:23.883Z,958.16
2019-02-22T08:04:23.756Z,958.13
2019-02-22T08:05:23.757Z,958.18
2019-02-22T08:06:23.557Z,958.27
2019-02-22T08:07:23.459Z,958.23
2019-02-22T08:08:23.383Z,958.27
2019-02-22T08:09:23.259Z,958.25
2019-02-22T08:10:23.161Z,958.25
2019-02-22T08:11:23.063Z,958.24
2019-02-22T08:12:23.089Z,958.33
2019-02-22T08:13:22.871Z,958.34
2019-02-22T08:14:22.787Z,958.31
2019-02-22T08:15:22.671Z,958.39
2019-02-22T08:16:22.568Z,958.41
2019-02-22T08:17:22.471Z,958.35
2019-02-22T08:18:22.375Z,958.39
2019-02-22T08:19:22.388Z,958.41
2019-02-22T08:20:22.178Z,958.39
2019-02-22T08:21:22.079Z,958.50
2019-02-22T08:22:21.985Z,958.48
2019-02-22T08:23:21.876Z,958.40
2019-02-22T08:24:21.794Z,958.47
2019-02-22T08:25:21.677Z,958.47
2019-02-22T08:26:21.734Z,958.49
2019-02-22T08:27:21.493Z,958.54
2019-02-22T08:28:21.386Z,958.54
2019-02-22T08:29:21.300Z,958.59
2019-02-22T08:30:21.189Z,958.58
2019-02-22T08:31:21.085Z,958.57
2019-02-22T08:32:20.989Z,958.60
2019-02-22T08:33:21.006Z,958.60
2019-02-22T08:34:20.805Z,958.60
2019-02-22T08:35:20.690Z,958.59
2019-02-22T08:36:20.591Z,958.61
2019-02-22T08:37:20.494Z,958.55
2019-02-22T08:38:20.396Z,958.61
2019-02-22T08:39:20.313Z,958.64
2019-02-22T08:40:20.313Z,958.61
2019-02-22T08:41:20.113Z,958.62
2019-02-22T08:42:19.998Z,958.63
2019-02-22T08:43:30.738Z,958.64
2019-02-22T08:44:19.818Z,958.66
2019-02-22T08:45:19.714Z,958.69
2019-02-22T08:46:19.608Z,958.69
2019-02-22T08:47:19.609Z,958.69
2019-02-22T08:48:19.406Z,958.66
2019-02-22T08:49:19.323Z,958.65
2019-02-22T08:50:19.211Z,958.69
2019-02-22T08:51:19.117Z,958.71
2019-02-22T08:52:19.014Z,958.74
2019-02-22T08:53:19.047Z,958.76
2019-02-22T08:54:18.831Z,958.77
2019-02-22T08:55:18.728Z,958.79
2019-02-22T08:56:18.618Z,958.78
2019-02-22T08:57:18.518Z,958.82
2019-02-22T08:58:18.420Z,958.82
2019-02-22T08:59:18.338Z,958.84
2019-02-22T09:00:18.223Z,958.92
2019-02-22T09:01:18.124Z,958.98
2019-02-22T09:02:18.026Z,959.05
2019-02-22T09:03:17.934Z,959.02
2019-02-22T09:04:17.844Z,958.95
2019-02-22T09:05:17.734Z,959.06
2019-02-22T09:06:17.631Z,958.96
2019-02-22T09:07:17.531Z,958.97
2019-02-22T09:08:17.433Z,958.97
2019-02-22T09:09:17.350Z,958.90
2019-02-22T09:10:17.235Z,958.96
2019-02-22T09:11:17.143Z,959.01
2019-02-22T09:12:17.041Z,959.05
2019-02-22T09:13:16.941Z,959.05
2019-02-22T09:14:16.862Z,959.03
2019-02-22T09:15:16.746Z,959.07
2019-02-22T09:16:16.647Z,959.14
2019-02-22T09:17:16.551Z,959.13
2019-02-22T09:18:16.450Z,959.15
2019-02-22T09:19:16.372Z,959.17
2019-02-22T09:20:16.334Z,959.12
2019-02-22T09:21:16.187Z,959.15
2019-02-22T09:22:22.811Z,959.21
2019-02-22T09:23:15.957Z,959.18
2019-02-22T09:24:15.873Z,959.22
2019-02-22T09:25:15.852Z,959.20
2019-02-22T09:26:15.660Z,959.18
2019-02-22T09:27:15.561Z,959.22
2019-02-22T09:28:15.461Z,959.32
2019-02-22T09:29:15.384Z,959.30
2019-02-22T09:30:15.272Z,959.31
2019-02-22T09:31:15.170Z,959.28
2019-02-22T09:32:15.069Z,959.30
2019-02-22T09:33:14.971Z,959.33
2019-02-22T09:34:14.887Z,959.30
2019-02-22T09:35:14.772Z,959.31
2019-02-22T09:36:14.679Z,959.30
2019-02-22T09:37:14.575Z,959.28
2019-02-22T09:38:14.479Z,959.27
2019-02-22T09:39:14.397Z,959.27
2019-02-22T09:40:14.901Z,959.30
2019-02-22T09:41:14.185Z,959.31
2019-02-22T09:42:14.089Z,959.29
2019-02-22T09:43:13.986Z,959.29
2019-02-22T09:44:13.893Z,959.25
2019-02-22T09:45:13.811Z,959.32
2019-02-22T09:46:13.693Z,959.36
2019-02-22T09:47:13.591Z,959.39
2019-02-22T09:48:13.494Z,959.34
2019-02-22T09:49:13.398Z,959.34
2019-02-22T09:50:13.318Z,959.38
2019-02-22T09:51:13.198Z,959.42
2019-02-22T09:52:13.101Z,959.35
2019-02-22T09:53:13.005Z,959.38
2019-02-22T09:54:12.906Z,959.44
2019-02-22T09:55:12.820Z,959.41
2019-02-22T09:56:12.705Z,959.46
2019-02-22T09:57:12.607Z,959.44
2019-02-22T09:58:12.510Z,959.44
2019-02-22T09:59:12.413Z,959.51
2019-02-22T10:00:12.329Z,959.53
2019-02-22T10:01:12.212Z,959.47
2019-02-22T10:02:12.115Z,959.53
2019-02-22T10:03:12.017Z,959.58
2019-02-22T10:04:11.919Z,959.63
2019-02-22T10:05:11.837Z,959.60
2019-02-22T10:06:11.721Z,959.57
2019-02-22T10:07:11.624Z,959.66
2019-02-22T10:08:11.525Z,959.64
2019-02-22T10:09:11.429Z,959.65
2019-02-22T10:10:11.347Z,959.67
2019-02-22T10:11:11.231Z,959.76
2019-02-22T10:12:11.134Z,959.78
2019-02-22T10:13:11.035Z,959.81
2019-02-22T10:14:10.932Z,959.85
2019-02-22T10:15:10.939Z,959.88
2019-02-22T10:16:10.737Z,959.81
2019-02-22T10:17:10.642Z,959.91
2019-02-22T10:18:10.539Z,960.00
2019-02-22T10:19:10.445Z,959.95
2019-02-22T10:20:10.378Z,959.88
2019-02-22T10:21:10.245Z,959.98
2019-02-22T10:22:10.147Z,959.91
2019-02-22T10:23:10.047Z,960.01
2019-02-22T10:24:10.054Z,960.04
2019-02-22T10:25:09.869Z,959.99
2019-02-22T10:26:09.751Z,960.03
2019-02-22T10:27:12.038Z,960.00
2019-02-22T10:28:17.317Z,960.03
2019-02-22T10:29:09.462Z,960.12
2019-02-22T10:30:09.373Z,960.09
2019-02-22T10:31:09.378Z,960.18
2019-02-22T10:32:09.159Z,960.12
2019-02-22T10:33:09.072Z,960.22
2019-02-22T10:34:08.967Z,960.20
2019-02-22T10:35:08.884Z,960.26
2019-02-22T10:36:08.767Z,960.50
2019-02-22T10:37:08.673Z,960.53
2019-02-22T10:38:08.690Z,960.41
2019-02-22T10:39:08.479Z,960.31
2019-02-22T10:40:08.388Z,960.37
2019-02-22T10:41:08.279Z,960.57
2019-02-22T10:42:08.179Z,960.84
2019-02-22T10:43:08.089Z,960.49
2019-02-22T10:44:17.474Z,960.42
2019-02-22T10:45:07.910Z,960.42
2019-02-22T10:46:07.793Z,960.44
2019-02-22T10:47:07.697Z,960.43
2019-02-22T10:48:07.604Z,960.45
2019-02-22T10:49:07.506Z,960.40
2019-02-22T10:50:07.427Z,960.52
2019-02-22T10:51:07.312Z,960.52
2019-02-22T10:52:07.221Z,960.49
2019-02-22T10:53:07.125Z,960.54
2019-02-22T10:54:07.021Z,960.62
2019-02-22T10:55:06.945Z,960.62
2019-02-22T10:56:06.830Z,960.76
2019-02-22T10:57:06.849Z,960.67
2019-02-22T10:58:06.634Z,960.71
2019-02-22T10:59:06.544Z,961.00
2019-02-22T11:00:06.458Z,960.70
2019-02-22T11:01:06.346Z,960.65
2019-02-22T11:02:06.286Z,960.68
2019-02-22T11:03:06.156Z,960.68
2019-02-22T11:04:06.054Z,960.79
2019-02-22T11:05:05.978Z,960.94
2019-02-22T11:06:05.876Z,960.90
2019-02-22T11:07:05.772Z,961.03
2019-02-22T11:08:05.672Z,960.84
2019-02-22T11:09:05.576Z,961.13
2019-02-22T11:10:05.500Z,960.87
2019-02-22T11:11:05.386Z,960.63
2019-02-22T11:12:05.290Z,960.61
2019-02-22T11:13:05.194Z,960.56
2019-02-22T11:14:05.102Z,960.60
2019-02-22T11:15:05.023Z,960.64
2019-02-22T11:16:04.909Z,960.67
2019-02-22T11:17:04.822Z,960.66
2019-02-22T11:18:04.720Z,960.70
2019-02-22T11:19:04.631Z,960.73
2019-02-22T11:20:04.548Z,960.69
2019-02-22T11:21:04.436Z,960.73
2019-02-22T11:22:04.345Z,960.72
2019-02-22T11:23:04.252Z,960.78
2019-02-22T11:24:04.151Z,960.78
2019-02-22T11:25:04.077Z,960.81
2019-02-22T11:26:03.963Z,960.80
2019-02-22T11:27:03.871Z,960.79
2019-02-22T11:28:03.774Z,960.88
2019-02-22T11:29:03.681Z,960.85
2019-02-22T11:30:03.588Z,960.82
2019-02-22T11:31:03.513Z,960.79
2019-02-22T11:32:03.391Z,960.70
2019-02-22T11:33:03.301Z,960.67
2019-02-22T11:34:03.201Z,960.66
2019-02-22T11:35:03.108Z,960.72
2019-02-22T11:36:03.033Z,960.68
2019-02-22T11:37:02.916Z,960.76
2019-02-22T11:38:02.826Z,960.76
2019-02-22T11:39:02.731Z,960.79
2019-02-22T11:40:02.629Z,960.77
2019-02-22T11:41:02.549Z,960.76
2019-02-22T11:42:02.441Z,960.86
2019-02-22T11:43:02.343Z,960.86
2019-02-22T11:44:02.244Z,960.95
2019-02-22T11:45:02.254Z,960.94
2019-02-22T11:46:02.074Z,960.92
2019-02-22T11:47:01.958Z,960.97
2019-02-22T11:48:08.999Z,961.05
2019-02-22T11:49:01.763Z,961.09
2019-02-22T11:50:01.670Z,961.14
2019-02-22T11:51:01.589Z,961.14
2019-02-22T11:52:01.580Z,961.14
2019-02-22T11:53:01.379Z,961.11
2019-02-22T11:54:01.284Z,961.03
2019-02-22T11:55:01.211Z,961.06
2019-02-22T11:56:01.108Z,961.01
2019-02-22T11:57:01.023Z,961.00
2019-02-22T11:58:00.899Z,960.98
2019-02-22T11:59:00.901Z,961.04
2019-02-22T12:00:00.712Z,961.05
2019-02-22T12:01:00.625Z,961.02
2019-02-22T12:02:00.515Z,960.96
2019-02-22T12:03:12.229Z,960.96
2019-02-22T12:04:00.318Z,961.01
2019-02-22T12:05:00.243Z,961.00
2019-02-22T12:06:00.140Z,961.01
2019-02-22T12:07:00.027Z,961.05
2019-02-22T12:07:59.930Z,961.06
2019-02-22T12:08:59.832Z,961.07
2019-02-22T12:09:59.737Z,961.08
2019-02-22T12:10:59.654Z,961.07
2019-02-22T12:11:59.546Z,961.05
2019-02-22T12:12:59.445Z,961.03
2019-02-22T12:13:59.345Z,961.07
2019-02-22T12:14:59.252Z,961.07
2019-02-22T12:15:59.168Z,961.07
2019-02-22T12:16:59.061Z,961.09
2019-02-22T12:17:58.956Z,961.05
2019-02-22T12:18:58.859Z,961.08
2019-02-22T12:19:58.762Z,961.08
2019-02-22T12:20:58.685Z,961.12
2019-02-22T12:21:58.569Z,961.14
2019-02-22T12:22:58.468Z,961.06
2019-02-22T12:23:58.369Z,961.14
2019-02-22T12:24:58.277Z,961.15
2019-02-22T12:25:58.194Z,961.11
2019-02-22T12:26:58.098Z,961.12